Time;durP1;ratioP1;P1;durP2;ratioP2;P2;SDS_P1;SDS_P2;PMS_P1;PMS_P2;Temp;Humidity;BMP_temperature;BMP_pressure;BME280_temperature;BME280_humidity;BME280_pressure;Samples;Min_cycle;Max_cycle;Signal;HPM_P1;HPM_P2
2022/07/17 00:01:34;;;;;;;3.10;1.63;;;;;;;;;;5052238;28;20385;-78
2022/07/17 00:04:00;;;;;;;1.92;1.25;;;;;;;;;;5051719;28;20381;-78
2022/07/17 00:06:26;;;;;;;1.60;1.30;;;;;;;;;;5052103;28;20385;-77
2022/07/17 00:08:52;;;;;;;1.88;1.65;;;;;;;;;;5051968;28;20451;-78
2022/07/17 00:11:18;;;;;;;2.35;1.40;;;;;;;;;;5052126;28;20382;-78
2022/07/17 00:13:44;;;;;;;2.27;1.50;;;;;;;;;;5051839;28;20793;-78
2022/07/17 00:16:10;;;;;;;2.13;1.55;;;;;;;;;;5051981;28;20401;-78
2022/07/17 00:18:36;;;;;;;2.63;1.70;;;;;;;;;;5051823;28;20405;-78
2022/07/17 00:21:02;;;;;;;1.58;1.42;;;;;;;;;;5049037;28;20439;-78
2022/07/17 00:23:28;;;;;;;2.10;1.70;;;;;;;;;;5053671;28;20439;-78
2022/07/17 00:25:54;;;;;;;1.90;1.70;;;;;;;;;;5055901;28;20780;-77
2022/07/17 00:28:20;;;;;;;1.65;1.50;;;;;;;;;;5056102;28;20398;-77
2022/07/17 00:30:46;;;;;;;2.03;1.65;;;;;;;;;;5055599;28;20393;-77
2022/07/17 00:33:12;;;;;;;1.60;1.40;;;;;;;;;;5055208;28;20424;-77
2022/07/17 00:35:38;;;;;;;2.08;1.42;;;;;;;;;;5055631;28;20468;-78
2022/07/17 00:38:04;;;;;;;2.40;1.65;;;;;;;;;;5055427;28;20385;-78
2022/07/17 00:40:31;;;;;;;2.80;1.42;;;;;;;;;;5055517;28;20389;-78
2022/07/17 00:42:56;;;;;;;2.65;1.60;;;;;;;;;;5055651;28;20377;-78
2022/07/17 00:45:24;;;;;;;1.60;1.50;;;;;;;;;;5054257;28;20382;-78
2022/07/17 00:47:55;;;;;;;1.90;1.60;;;;;;;;;;5054499;28;20464;-78
2022/07/17 00:50:27;;;;;;;1.93;1.77;;;;;;;;;;5055095;28;20744;-78
2022/07/17 00:52:53;;;;;;;3.30;1.70;;;;;;;;;;5055461;28;20418;-78
2022/07/17 00:55:20;;;;;;;2.70;1.55;;;;;;;;;;5055443;28;20377;-77
2022/07/17 00:57:47;;;;;;;1.60;1.50;;;;;;;;;;5055275;28;20898;-78
2022/07/17 01:00:14;;;;;;;2.15;1.60;;;;;;;;;;5055064;28;20385;-77
2022/07/17 01:02:40;;;;;;;2.30;1.60;;;;;;;;;;5049505;28;20397;-78
2022/07/17 01:05:06;;;;;;;2.72;1.60;;;;;;;;;;5055257;28;20374;-78
2022/07/17 01:07:33;;;;;;;3.20;1.42;;;;;;;;;;5054907;28;20382;-78
2022/07/17 01:09:59;;;;;;;3.22;1.80;;;;;;;;;;5054980;28;20485;-78
2022/07/17 01:12:25;;;;;;;2.50;1.57;;;;;;;;;;5054868;28;20457;-77
2022/07/17 01:14:55;;;;;;;2.50;1.50;;;;;;;;;;5055139;28;20385;-78
2022/07/17 01:17:21;;;;;;;2.03;1.40;;;;;;;;;;5054897;28;20444;-77
2022/07/17 01:19:47;;;;;;;2.55;1.60;;;;;;;;;;5054381;28;20390;-78
2022/07/17 01:22:13;;;;;;;2.20;1.80;;;;;;;;;;5054518;28;20750;-78
2022/07/17 01:24:40;;;;;;;2.27;1.60;;;;;;;;;;5054914;28;20385;-78
2022/07/17 01:27:06;;;;;;;2.33;1.60;;;;;;;;;;5054651;28;20408;-78
2022/07/17 01:29:32;;;;;;;3.72;1.70;;;;;;;;;;5057127;28;20403;-78
2022/07/17 01:31:58;;;;;;;2.07;1.60;;;;;;;;;;5059472;28;20464;-78
2022/07/17 01:34:24;;;;;;;3.78;1.70;;;;;;;;;;5053458;28;20382;-78
2022/07/17 01:36:50;;;;;;;2.25;1.60;;;;;;;;;;5053332;28;20432;-77
2022/07/17 01:39:16;;;;;;;2.10;1.90;;;;;;;;;;5053944;28;20467;-78
2022/07/17 01:41:42;;;;;;;3.10;1.70;;;;;;;;;;5054056;28;20395;-78
2022/07/17 01:44:08;;;;;;;1.95;1.52;;;;;;;;;;5053741;28;20866;-78
2022/07/17 01:46:35;;;;;;;1.50;1.40;;;;;;;;;;5048882;28;20401;-78
2022/07/17 01:49:02;;;;;;;3.03;1.90;;;;;;;;;;5045172;28;20460;-78
2022/07/17 01:51:28;;;;;;;1.90;1.70;;;;;;;;;;5052352;28;20912;-78
2022/07/17 01:53:54;;;;;;;1.90;1.70;;;;;;;;;;5052516;28;20397;-78
2022/07/17 01:56:21;;;;;;;2.70;1.60;;;;;;;;;;5053674;28;20408;-78
2022/07/17 01:58:47;;;;;;;2.60;1.60;;;;;;;;;;5053756;28;20397;-78
2022/07/17 02:01:13;;;;;;;2.22;1.52;;;;;;;;;;5054174;28;20457;-78
2022/07/17 02:03:39;;;;;;;1.73;1.60;;;;;;;;;;5053851;28;20481;-78
2022/07/17 02:06:05;;;;;;;2.80;1.90;;;;;;;;;;5054107;28;20381;-77
2022/07/17 02:08:31;;;;;;;1.98;1.48;;;;;;;;;;5053600;28;20400;-78
2022/07/17 02:10:57;;;;;;;2.42;1.58;;;;;;;;;;5053938;28;20405;-77
2022/07/17 02:13:23;;;;;;;1.80;1.60;;;;;;;;;;5053692;28;21033;-78
2022/07/17 02:15:49;;;;;;;2.25;1.50;;;;;;;;;;5053918;28;20398;-77
2022/07/17 02:18:15;;;;;;;1.80;1.60;;;;;;;;;;5050563;28;20467;-78
2022/07/17 02:20:41;;;;;;;1.70;1.60;;;;;;;;;;5053692;28;20734;-78
2022/07/17 02:23:07;;;;;;;2.20;1.70;;;;;;;;;;5053731;28;20369;-78
2022/07/17 02:25:33;;;;;;;1.80;1.60;;;;;;;;;;5053589;28;20468;-78
2022/07/17 02:27:59;;;;;;;3.45;1.40;;;;;;;;;;5053631;28;20462;-78
2022/07/17 02:30:25;;;;;;;1.85;1.75;;;;;;;;;;5053518;28;20741;-78
2022/07/17 02:32:51;;;;;;;2.00;1.67;;;;;;;;;;5053451;28;20377;-78
2022/07/17 02:35:17;;;;;;;1.73;1.40;;;;;;;;;;5053465;28;20425;-78
2022/07/17 02:37:45;;;;;;;2.80;1.60;;;;;;;;;;5053188;28;20397;-78
2022/07/17 02:40:12;;;;;;;1.85;1.60;;;;;;;;;;5052256;28;20818;-78
2022/07/17 02:42:38;;;;;;;1.63;1.52;;;;;;;;;;5053206;28;20417;-78
2022/07/17 02:45:06;;;;;;;2.28;1.67;;;;;;;;;;5053106;28;20881;-78
2022/07/17 02:47:34;;;;;;;2.08;1.63;;;;;;;;;;5053214;28;20389;-78
2022/07/17 02:50:03;;;;;;;1.60;1.50;;;;;;;;;;5052947;28;20393;-77
2022/07/17 02:52:29;;;;;;;3.00;1.85;;;;;;;;;;5053397;28;20712;-78
2022/07/17 02:54:55;;;;;;;2.03;1.70;;;;;;;;;;5048851;28;20377;-78
2022/07/17 02:57:21;;;;;;;1.90;1.60;;;;;;;;;;5052472;28;20420;-78
2022/07/17 02:59:47;;;;;;;1.83;1.70;;;;;;;;;;5052996;28;20373;-78
2022/07/17 03:02:14;;;;;;;2.00;1.58;;;;;;;;;;5052356;28;20524;-78
2022/07/17 03:04:40;;;;;;;1.95;1.52;;;;;;;;;;5052979;28;20390;-78
2022/07/17 03:07:06;;;;;;;2.35;1.88;;;;;;;;;;5052613;28;20381;-78
2022/07/17 03:09:32;;;;;;;2.10;1.75;;;;;;;;;;5047204;28;20393;-78
2022/07/17 03:11:58;;;;;;;1.98;1.77;;;;;;;;;;5052857;28;20380;-78
2022/07/17 03:14:24;;;;;;;2.17;1.80;;;;;;;;;;5052693;28;20391;-78
2022/07/17 03:16:50;;;;;;;2.58;1.80;;;;;;;;;;5052499;28;20413;-78
2022/07/17 03:19:16;;;;;;;1.85;1.50;;;;;;;;;;5052434;28;20812;-78
2022/07/17 03:21:42;;;;;;;2.33;1.70;;;;;;;;;;5052566;28;20813;-78
2022/07/17 03:24:08;;;;;;;1.83;1.67;;;;;;;;;;5052513;28;20373;-78
2022/07/17 03:26:34;;;;;;;3.08;1.77;;;;;;;;;;5052352;28;20424;-78
2022/07/17 03:29:01;;;;;;;1.55;1.42;;;;;;;;;;5052344;28;20443;-78
2022/07/17 03:31:27;;;;;;;2.85;1.70;;;;;;;;;;5038570;28;20377;-78
2022/07/17 03:33:53;;;;;;;2.00;1.75;;;;;;;;;;5052809;28;20473;-78
2022/07/17 03:36:20;;;;;;;1.77;1.65;;;;;;;;;;5052268;28;20881;-78
2022/07/17 03:38:46;;;;;;;2.08;1.90;;;;;;;;;;5052420;28;20423;-78
2022/07/17 03:41:12;;;;;;;1.85;1.70;;;;;;;;;;5052278;28;20476;-77
2022/07/17 03:43:38;;;;;;;1.90;1.75;;;;;;;;;;5052508;28;20374;-78
2022/07/17 03:46:04;;;;;;;2.65;1.80;;;;;;;;;;5052135;28;20389;-78
2022/07/17 03:48:30;;;;;;;3.35;1.95;;;;;;;;;;5051939;28;20765;-78
2022/07/17 03:50:56;;;;;;;2.13;1.77;;;;;;;;;;5052070;28;20493;-78
2022/07/17 03:53:22;;;;;;;2.57;1.80;;;;;;;;;;5052130;28;20392;-78
2022/07/17 03:55:48;;;;;;;2.92;1.73;;;;;;;;;;5051939;28;20413;-77
2022/07/17 03:58:14;;;;;;;2.17;1.50;;;;;;;;;;5046662;28;20486;-78
2022/07/17 04:00:40;;;;;;;2.55;1.70;;;;;;;;;;5037569;28;20439;-78
2022/07/17 04:03:06;;;;;;;2.55;1.80;;;;;;;;;;5036757;28;20387;-78
2022/07/17 04:08:05;;;;;;;2.00;1.80;;;;;;;;;;5043438;28;20438;-79
2022/07/17 04:10:31;;;;;;;2.60;1.70;;;;;;;;;;5046675;28;20813;-79
2022/07/17 04:12:57;;;;;;;2.63;1.70;;;;;;;;;;5051419;28;20884;-79
2022/07/17 04:18:07;;;;;;;1.88;1.70;;;;;;;;;;5032193;28;20378;-79
2022/07/17 04:20:33;;;;;;;2.63;1.80;;;;;;;;;;5032018;28;20411;-79
2022/07/17 04:22:59;;;;;;;2.58;1.80;;;;;;;;;;5031839;28;20410;-79
2022/07/17 04:25:25;;;;;;;2.05;1.90;;;;;;;;;;5031913;28;20454;-79
2022/07/17 04:27:51;;;;;;;3.60;2.30;;;;;;;;;;5026353;28;20793;-79
2022/07/17 04:30:17;;;;;;;2.85;2.15;;;;;;;;;;5031775;28;20371;-79
2022/07/17 04:32:43;;;;;;;2.30;1.70;;;;;;;;;;5031076;28;20387;-79
2022/07/17 04:35:09;;;;;;;2.47;1.77;;;;;;;;;;5020105;28;20418;-79
2022/07/17 04:37:35;;;;;;;2.10;1.85;;;;;;;;;;5031045;28;20509;-79
2022/07/17 04:40:01;;;;;;;2.70;1.80;;;;;;;;;;5031736;28;20390;-78
2022/07/17 04:42:27;;;;;;;2.08;1.80;;;;;;;;;;5031788;28;20849;-78
2022/07/17 04:44:53;;;;;;;2.50;1.87;;;;;;;;;;5030921;28;20440;-78
2022/07/17 04:47:19;;;;;;;2.10;1.70;;;;;;;;;;5031677;28;20387;-78
2022/07/17 04:49:45;;;;;;;4.32;1.80;;;;;;;;;;5031663;28;20375;-78
2022/07/17 04:52:11;;;;;;;2.60;1.85;;;;;;;;;;5031597;28;20390;-78
2022/07/17 04:54:37;;;;;;;3.83;1.90;;;;;;;;;;5031006;28;20391;-78
2022/07/17 04:57:03;;;;;;;2.50;1.75;;;;;;;;;;5021613;28;20444;-78
2022/07/17 04:59:29;;;;;;;3.30;1.65;;;;;;;;;;5031577;28;20379;-78
2022/07/17 05:01:55;;;;;;;2.53;1.67;;;;;;;;;;5013756;28;20446;-78
2022/07/17 05:04:21;;;;;;;2.42;1.63;;;;;;;;;;5024692;28;20391;-78
2022/07/17 05:06:47;;;;;;;3.60;1.73;;;;;;;;;;5026722;28;20406;-79
2022/07/17 05:09:13;;;;;;;1.73;1.60;;;;;;;;;;5031952;28;20387;-78
2022/07/17 05:11:39;;;;;;;2.05;1.70;;;;;;;;;;5035103;28;20390;-79
2022/07/17 05:14:05;;;;;;;2.03;1.80;;;;;;;;;;5026874;28;20936;-79
2022/07/17 05:16:31;;;;;;;2.55;1.63;;;;;;;;;;5034136;28;20488;-79
2022/07/17 05:18:57;;;;;;;2.33;1.60;;;;;;;;;;5022636;28;20496;-78
2022/07/17 05:21:23;;;;;;;1.98;1.88;;;;;;;;;;5033053;28;20891;-79
2022/07/17 05:23:49;;;;;;;2.30;1.80;;;;;;;;;;5024137;28;20406;-78
2022/07/17 05:26:15;;;;;;;3.20;1.80;;;;;;;;;;5023915;28;20391;-79
2022/07/17 05:28:41;;;;;;;3.30;1.73;;;;;;;;;;5035145;28;20417;-78
2022/07/17 05:31:07;;;;;;;2.50;1.90;;;;;;;;;;5033497;28;20402;-79
2022/07/17 05:33:34;;;;;;;2.40;1.70;;;;;;;;;;5027429;28;20761;-79
2022/07/17 05:36:00;;;;;;;2.20;1.98;;;;;;;;;;5028898;28;20411;-79
2022/07/17 05:38:26;;;;;;;2.20;1.88;;;;;;;;;;5034541;28;20375;-79
2022/07/17 05:40:52;;;;;;;2.63;1.73;;;;;;;;;;5034801;28;20735;-79
2022/07/17 05:43:18;;;;;;;2.10;1.70;;;;;;;;;;5034412;28;20385;-78
2022/07/17 05:45:44;;;;;;;2.50;1.90;;;;;;;;;;5034357;28;20383;-79
2022/07/17 05:48:10;;;;;;;1.85;1.70;;;;;;;;;;5032859;28;20471;-78
2022/07/17 05:50:36;;;;;;;3.22;1.90;;;;;;;;;;5034280;28;20383;-79
2022/07/17 05:53:02;;;;;;;2.10;1.90;;;;;;;;;;5033097;28;20421;-78
2022/07/17 05:55:28;;;;;;;2.90;1.95;;;;;;;;;;5034288;28;20383;-78
2022/07/17 05:57:54;;;;;;;2.67;1.70;;;;;;;;;;5031772;28;20391;-79
2022/07/17 06:00:20;;;;;;;2.40;1.73;;;;;;;;;;5032453;28;20917;-79
2022/07/17 06:02:46;;;;;;;2.00;1.73;;;;;;;;;;5033660;28;20386;-79
2022/07/17 06:05:12;;;;;;;1.97;1.63;;;;;;;;;;5033634;28;20457;-79
2022/07/17 06:07:38;;;;;;;1.73;1.60;;;;;;;;;;5031440;28;20875;-78
2022/07/17 06:10:05;;;;;;;3.10;1.70;;;;;;;;;;5029530;28;20478;-79
2022/07/17 06:12:31;;;;;;;3.40;1.63;;;;;;;;;;5033829;28;20426;-80
2022/07/17 06:14:57;;;;;;;2.30;1.70;;;;;;;;;;5030330;28;20407;-79
2022/07/17 06:17:23;;;;;;;2.90;1.80;;;;;;;;;;5033510;28;20403;-79
2022/07/17 06:19:52;;;;;;;2.10;1.83;;;;;;;;;;5032697;28;20883;-84
2022/07/17 06:22:19;;;;;;;3.15;1.65;;;;;;;;;;5024009;28;20491;-83
2022/07/17 06:24:45;;;;;;;3.33;1.95;;;;;;;;;;5032277;28;20867;-82
2022/07/17 06:27:11;;;;;;;2.28;1.70;;;;;;;;;;5025102;28;20403;-85
2022/07/17 06:29:37;;;;;;;2.55;1.80;;;;;;;;;;5022705;28;20506;-81
2022/07/17 06:32:03;;;;;;;2.97;1.80;;;;;;;;;;5030722;28;20414;-83
2022/07/17 06:34:29;;;;;;;2.85;1.70;;;;;;;;;;5033413;28;20414;-82
2022/07/17 06:36:55;;;;;;;2.17;1.65;;;;;;;;;;5033249;28;20469;-83
2022/07/17 06:39:21;;;;;;;3.83;1.87;;;;;;;;;;5031253;28;20379;-82
2022/07/17 06:41:48;;;;;;;1.80;1.70;;;;;;;;;;5032655;28;20399;-82
2022/07/17 06:44:14;;;;;;;1.60;1.50;;;;;;;;;;5014317;28;20398;-80
2022/07/17 06:46:40;;;;;;;4.85;1.83;;;;;;;;;;5028740;28;20908;-81
2022/07/17 06:49:06;;;;;;;2.17;1.60;;;;;;;;;;5032622;28;20383;-80
2022/07/17 06:51:32;;;;;;;3.08;1.90;;;;;;;;;;5031145;28;20387;-81
2022/07/17 06:53:58;;;;;;;3.85;1.80;;;;;;;;;;5027325;28;20402;-81
2022/07/17 06:56:24;;;;;;;2.17;1.50;;;;;;;;;;5027083;28;20407;-82
2022/07/17 06:58:50;;;;;;;2.60;1.73;;;;;;;;;;5027552;28;20756;-80
2022/07/17 07:01:16;;;;;;;2.50;1.60;;;;;;;;;;5026990;28;20399;-84
2022/07/17 07:03:42;;;;;;;2.50;1.60;;;;;;;;;;5032095;28;20407;-83
2022/07/17 07:06:08;;;;;;;2.90;1.75;;;;;;;;;;5029792;28;20415;-82
2022/07/17 07:08:35;;;;;;;3.50;1.73;;;;;;;;;;5032771;28;20398;-81
2022/07/17 07:11:02;;;;;;;2.90;1.77;;;;;;;;;;5011670;28;20951;-82
2022/07/17 07:13:28;;;;;;;3.47;1.77;;;;;;;;;;5027589;28;20461;-80
2022/07/17 07:15:54;;;;;;;3.70;1.85;;;;;;;;;;5030467;28;20411;-82
2022/07/17 07:18:20;;;;;;;3.78;1.80;;;;;;;;;;5024774;28;20396;-84
2022/07/17 07:20:46;;;;;;;2.38;1.75;;;;;;;;;;5028843;28;20422;-81
2022/07/17 07:23:12;;;;;;;4.50;1.70;;;;;;;;;;5029280;28;20387;-81
2022/07/17 07:25:38;;;;;;;3.10;1.77;;;;;;;;;;5032426;28;20376;-80
2022/07/17 07:28:04;;;;;;;2.63;1.80;;;;;;;;;;5032450;28;20867;-82
2022/07/17 07:30:30;;;;;;;2.20;1.50;;;;;;;;;;5032495;28;20786;-81
2022/07/17 07:32:57;;;;;;;3.05;1.50;;;;;;;;;;5032012;28;20931;-81
2022/07/17 07:35:23;;;;;;;1.85;1.60;;;;;;;;;;5031274;28;20387;-81
2022/07/17 07:37:49;;;;;;;5.73;1.70;;;;;;;;;;5031501;28;20410;-81
2022/07/17 07:40:15;;;;;;;3.30;1.60;;;;;;;;;;5024504;28;20381;-82
2022/07/17 07:42:41;;;;;;;2.53;1.40;;;;;;;;;;5025343;28;20387;-81
2022/07/17 07:45:08;;;;;;;3.63;1.50;;;;;;;;;;5031431;28;20386;-80
2022/07/17 07:47:40;;;;;;;2.00;1.52;;;;;;;;;;5030237;28;20394;-82
2022/07/17 07:50:06;;;;;;;2.97;1.40;;;;;;;;;;5030224;28;20394;-83
2022/07/17 07:52:32;;;;;;;2.03;1.50;;;;;;;;;;5026238;28;20399;-82
2022/07/17 07:54:58;;;;;;;2.85;1.58;;;;;;;;;;5027232;28;20937;-82
2022/07/17 07:57:24;;;;;;;1.92;1.42;;;;;;;;;;5019728;28;20419;-82
2022/07/17 08:00:11;;;;;;;2.10;1.40;;;;;;;;;;5027438;28;20425;-82
2022/07/17 08:02:37;;;;;;;1.50;1.30;;;;;;;;;;5030843;28;20422;-81
2022/07/17 08:05:03;;;;;;;1.63;1.50;;;;;;;;;;5032270;28;20414;-81
2022/07/17 08:07:30;;;;;;;2.63;1.42;;;;;;;;;;5028255;28;20404;-83
2022/07/17 08:09:57;;;;;;;1.60;1.30;;;;;;;;;;5021520;28;20401;-83
2022/07/17 08:12:26;;;;;;;1.52;1.40;;;;;;;;;;5010472;28;20392;-83
2022/07/17 08:14:54;;;;;;;1.67;1.38;;;;;;;;;;5010518;28;20499;-84
2022/07/17 08:17:23;;;;;;;1.95;1.38;;;;;;;;;;5005413;28;20422;-83
2022/07/17 08:19:49;;;;;;;1.80;1.37;;;;;;;;;;5013567;28;20391;-82
2022/07/17 08:22:15;;;;;;;1.55;1.30;;;;;;;;;;5009900;28;20393;-83
2022/07/17 08:24:44;;;;;;;2.15;1.30;;;;;;;;;;5009275;28;20387;-82
2022/07/17 08:27:10;;;;;;;2.45;1.40;;;;;;;;;;5017902;28;20428;-83
2022/07/17 08:29:36;;;;;;;1.73;1.50;;;;;;;;;;5029488;28;20475;-83
2022/07/17 08:32:02;;;;;;;2.20;1.27;;;;;;;;;;5014144;28;20924;-82
2022/07/17 08:34:31;;;;;;;1.30;1.20;;;;;;;;;;5030327;28;20391;-82
2022/07/17 08:36:57;;;;;;;2.10;1.45;;;;;;;;;;5031639;28;20387;-83
2022/07/17 08:39:26;;;;;;;1.55;1.45;;;;;;;;;;5010756;28;20381;-83
2022/07/17 08:41:55;;;;;;;1.48;1.38;;;;;;;;;;5014016;28;20744;-83
2022/07/17 08:44:31;;;;;;;2.95;1.40;;;;;;;;;;5014607;28;20387;-83
2022/07/17 08:46:57;;;;;;;1.83;1.40;;;;;;;;;;5014123;28;20489;-82
2022/07/17 08:49:23;;;;;;;2.50;1.50;;;;;;;;;;5035760;28;20383;-82
2022/07/17 08:51:49;;;;;;;2.83;1.35;;;;;;;;;;5033759;28;20383;-81
2022/07/17 08:54:16;;;;;;;2.78;1.50;;;;;;;;;;5034685;28;20882;-81
2022/07/17 08:56:42;;;;;;;3.15;1.20;;;;;;;;;;5035062;28;20900;-82
2022/07/17 08:59:08;;;;;;;2.78;1.33;;;;;;;;;;5029672;28;20923;-81
2022/07/17 09:01:34;;;;;;;1.13;1.10;;;;;;;;;;5034560;28;20387;-80
2022/07/17 09:04:05;;;;;;;2.13;1.20;;;;;;;;;;5033985;28;20395;-81
2022/07/17 09:06:31;;;;;;;3.88;1.30;;;;;;;;;;5013344;28;20754;-81
2022/07/17 09:09:04;;;;;;;4.13;1.63;;;;;;;;;;5034130;28;20738;-81
2022/07/17 09:11:30;;;;;;;2.03;1.33;;;;;;;;;;5033388;28;20386;-81
2022/07/17 09:13:56;;;;;;;3.10;1.33;;;;;;;;;;5033073;28;20506;-81
2022/07/17 09:16:22;;;;;;;1.73;1.20;;;;;;;;;;5033664;28;20386;-81
2022/07/17 09:18:57;;;;;;;1.77;1.30;;;;;;;;;;5033531;28;20977;-82
2022/07/17 09:21:27;;;;;;;2.17;1.20;;;;;;;;;;5032489;28;20699;-80
2022/07/17 09:24:00;;;;;;;2.42;1.42;;;;;;;;;;5034242;28;20457;-81
2022/07/17 09:26:26;;;;;;;3.53;1.30;;;;;;;;;;5034763;28;20407;-81
2022/07/17 09:28:52;;;;;;;2.43;1.40;;;;;;;;;;5034875;28;20414;-81
2022/07/17 09:31:28;;;;;;;10.25;1.77;;;;;;;;;;5034762;28;20422;-81
2022/07/17 09:33:54;;;;;;;1.80;1.33;;;;;;;;;;5033790;28;20434;-80
2022/07/17 09:36:20;;;;;;;1.83;1.25;;;;;;;;;;5034525;28;20428;-81
2022/07/17 09:38:46;;;;;;;2.67;1.30;;;;;;;;;;5034206;28;20383;-81
2022/07/17 09:41:15;;;;;;;1.95;1.50;;;;;;;;;;5033442;28;20398;-80
2022/07/17 09:43:44;;;;;;;2.03;1.27;;;;;;;;;;5034498;28;20383;-80
2022/07/17 09:46:12;;;;;;;2.63;1.10;;;;;;;;;;5033118;28;20929;-81
2022/07/17 09:48:47;;;;;;;1.33;1.20;;;;;;;;;;5032188;28;20933;-82
2022/07/17 09:51:13;;;;;;;1.27;1.10;;;;;;;;;;5032408;28;20371;-82
2022/07/17 09:53:40;;;;;;;3.17;1.38;;;;;;;;;;5031463;28;20391;-82
2022/07/17 09:56:07;;;;;;;2.17;1.30;;;;;;;;;;5031764;28;20474;-81
2022/07/17 09:58:35;;;;;;;2.10;1.30;;;;;;;;;;5033214;28;20470;-81
2022/07/17 10:01:01;;;;;;;1.90;1.30;;;;;;;;;;5032619;28;20434;-82
2022/07/17 10:03:27;;;;;;;1.33;1.10;;;;;;;;;;5029820;28;20486;-83
2022/07/17 10:05:53;;;;;;;1.40;1.20;;;;;;;;;;5032528;28;20418;-81
2022/07/17 10:08:20;;;;;;;2.03;1.13;;;;;;;;;;5030848;28;20389;-81
2022/07/17 10:10:46;;;;;;;3.03;1.25;;;;;;;;;;5030778;28;20391;-81
2022/07/17 10:13:15;;;;;;;2.63;1.40;;;;;;;;;;5033134;28;20429;-82
2022/07/17 10:15:41;;;;;;;2.75;1.38;;;;;;;;;;5031412;28;20801;-80
2022/07/17 10:18:08;;;;;;;3.10;1.40;;;;;;;;;;5033649;28;20372;-82
2022/07/17 10:20:34;;;;;;;3.15;1.48;;;;;;;;;;5032892;28;20391;-81
2022/07/17 10:23:00;;;;;;;2.28;1.30;;;;;;;;;;5032724;28;20434;-81
2022/07/17 10:25:26;;;;;;;2.25;1.30;;;;;;;;;;5033169;28;20380;-82
2022/07/17 10:27:55;;;;;;;3.00;1.20;;;;;;;;;;5026527;28;20921;-82
2022/07/17 10:30:24;;;;;;;2.63;1.35;;;;;;;;;;5023761;28;20453;-81
2022/07/17 10:32:54;;;;;;;3.40;1.20;;;;;;;;;;5033121;28;20748;-82
2022/07/17 10:35:20;;;;;;;1.60;1.20;;;;;;;;;;5033226;28;20387;-79
2022/07/17 10:37:46;;;;;;;1.30;1.20;;;;;;;;;;5033330;28;20383;-80
2022/07/17 10:40:12;;;;;;;1.20;1.10;;;;;;;;;;5029325;28;21010;-80
2022/07/17 10:42:39;;;;;;;2.92;1.25;;;;;;;;;;5033409;28;20517;-80
2022/07/17 10:45:06;;;;;;;2.28;1.30;;;;;;;;;;5033346;28;20499;-81
2022/07/17 10:47:42;;;;;;;3.50;1.45;;;;;;;;;;5032625;28;20407;-82
2022/07/17 10:50:08;;;;;;;1.30;1.20;;;;;;;;;;5033168;28;20724;-82
2022/07/17 10:52:34;;;;;;;2.20;1.20;;;;;;;;;;5032837;28;20386;-82
2022/07/17 10:55:00;;;;;;;2.07;1.13;;;;;;;;;;5030952;28;20432;-82
2022/07/17 10:57:26;;;;;;;1.23;1.13;;;;;;;;;;5031521;28;20736;-82
2022/07/17 10:59:53;;;;;;;1.92;1.40;;;;;;;;;;5032225;28;20395;-82
2022/07/17 11:02:27;;;;;;;2.65;1.15;;;;;;;;;;5029649;28;20482;-82
2022/07/17 11:04:53;;;;;;;3.60;1.30;;;;;;;;;;5032766;28;20775;-81
2022/07/17 11:07:19;;;;;;;1.52;1.20;;;;;;;;;;5031987;28;20413;-82
2022/07/17 11:09:48;;;;;;;2.53;1.30;;;;;;;;;;5032971;28;20379;-82
2022/07/17 11:12:16;;;;;;;1.40;1.30;;;;;;;;;;5032112;28;20379;-83
2022/07/17 11:14:42;;;;;;;1.30;1.20;;;;;;;;;;5032924;28;20411;-82
2022/07/17 11:17:08;;;;;;;3.13;1.20;;;;;;;;;;5032710;28;20418;-82
2022/07/17 11:19:38;;;;;;;1.60;1.15;;;;;;;;;;5027064;28;20453;-82
2022/07/17 11:22:05;;;;;;;1.35;1.25;;;;;;;;;;5027357;28;20756;-82
2022/07/17 11:24:44;;;;;;;1.98;1.23;;;;;;;;;;5005630;28;20385;-82
2022/07/17 11:27:11;;;;;;;1.63;1.20;;;;;;;;;;5025998;28;20850;-82
2022/07/17 11:29:38;;;;;;;3.25;1.30;;;;;;;;;;5032611;28;20407;-80
2022/07/17 11:32:04;;;;;;;2.13;1.20;;;;;;;;;;5031581;28;20383;-81
2022/07/17 11:34:30;;;;;;;1.80;1.13;;;;;;;;;;5032631;28;20390;-81
2022/07/17 11:37:00;;;;;;;2.38;1.40;;;;;;;;;;5032423;28;20752;-80
2022/07/17 11:39:26;;;;;;;2.07;1.30;;;;;;;;;;5032464;28;20462;-81
2022/07/17 11:41:53;;;;;;;2.00;1.10;;;;;;;;;;5032418;28;20484;-81
2022/07/17 11:44:20;;;;;;;1.67;1.30;;;;;;;;;;5032002;28;20387;-82
2022/07/17 11:46:48;;;;;;;2.55;1.30;;;;;;;;;;5013392;28;20415;-82
2022/07/17 11:49:34;;;;;;;1.40;1.30;;;;;;;;;;5031088;28;20472;-81
2022/07/17 11:52:11;;;;;;;1.27;1.17;;;;;;;;;;5031503;28;20383;-80
2022/07/17 11:55:06;;;;;;;2.15;1.10;;;;;;;;;;5014533;28;20956;-80
2022/07/17 11:57:41;;;;;;;2.40;1.30;;;;;;;;;;5017774;28;20472;-81
2022/07/17 12:00:08;;;;;;;1.87;1.40;;;;;;;;;;5031292;28;20748;-82
2022/07/17 12:02:34;;;;;;;2.13;1.30;;;;;;;;;;5032222;28;20425;-82
2022/07/17 12:05:01;;;;;;;1.70;1.40;;;;;;;;;;5032259;28;20419;-82
2022/07/17 12:07:38;;;;;;;2.45;1.25;;;;;;;;;;5031546;28;20770;-80
2022/07/17 12:10:19;;;;;;;1.17;1.08;;;;;;;;;;5030505;28;20864;-81
2022/07/17 12:12:56;;;;;;;1.50;1.25;;;;;;;;;;5032104;28;20458;-81
2022/07/17 12:15:23;;;;;;;1.77;1.20;;;;;;;;;;5031047;28;20379;-81
2022/07/17 12:17:49;;;;;;;1.40;1.10;;;;;;;;;;5032538;28;20430;-81
2022/07/17 12:20:15;;;;;;;1.38;1.20;;;;;;;;;;5036223;28;20476;-81
2022/07/17 12:22:48;;;;;;;1.42;1.10;;;;;;;;;;5036308;28;20414;-81
2022/07/17 12:25:23;;;;;;;1.10;1.00;;;;;;;;;;5035980;28;20406;-81
2022/07/17 12:27:49;;;;;;;2.13;1.27;;;;;;;;;;5035130;28;20414;-81
2022/07/17 12:30:15;;;;;;;1.48;1.02;;;;;;;;;;5034709;28;20808;-81
2022/07/17 12:32:42;;;;;;;1.75;0.90;;;;;;;;;;5034754;28;20450;-82
2022/07/17 12:35:08;;;;;;;1.42;1.17;;;;;;;;;;5034650;28;20740;-79
2022/07/17 12:37:34;;;;;;;1.98;1.33;;;;;;;;;;5033038;28;20390;-81
2022/07/17 12:40:00;;;;;;;1.67;1.10;;;;;;;;;;5035037;28;20394;-82
2022/07/17 12:42:26;;;;;;;1.45;1.25;;;;;;;;;;5035749;28;20374;-82
2022/07/17 12:44:52;;;;;;;1.17;1.08;;;;;;;;;;5035655;28;20894;-82
2022/07/17 12:47:18;;;;;;;1.70;1.20;;;;;;;;;;5031684;28;20415;-82
2022/07/17 12:49:44;;;;;;;1.70;1.15;;;;;;;;;;5035470;28;20470;-81
2022/07/17 12:52:10;;;;;;;1.02;0.93;;;;;;;;;;5033077;28;20394;-82
2022/07/17 12:54:36;;;;;;;2.10;1.10;;;;;;;;;;5034755;28;20477;-82
2022/07/17 12:57:02;;;;;;;1.13;1.02;;;;;;;;;;5035368;28;20414;-82
2022/07/17 12:59:28;;;;;;;1.52;1.10;;;;;;;;;;5035102;28;20383;-82
2022/07/17 13:01:54;;;;;;;1.25;1.15;;;;;;;;;;5035381;28;20409;-82
2022/07/17 13:04:21;;;;;;;1.65;1.10;;;;;;;;;;5031770;28;20391;-81
2022/07/17 13:06:47;;;;;;;1.17;1.08;;;;;;;;;;5034786;28;20488;-82
2022/07/17 13:09:13;;;;;;;1.20;1.10;;;;;;;;;;5035281;28;20478;-82
2022/07/17 13:11:43;;;;;;;1.30;1.20;;;;;;;;;;5035120;28;20871;-83
2022/07/17 13:14:12;;;;;;;1.40;1.10;;;;;;;;;;5035328;28;20383;-83
2022/07/17 13:16:38;;;;;;;2.00;1.20;;;;;;;;;;5034462;28;20441;-82
2022/07/17 13:19:05;;;;;;;1.92;1.05;;;;;;;;;;5033573;28;20752;-82
2022/07/17 13:21:31;;;;;;;1.67;1.25;;;;;;;;;;5035020;28;20778;-83
2022/07/17 13:23:57;;;;;;;1.77;1.25;;;;;;;;;;5035044;28;20387;-82
2022/07/17 13:26:23;;;;;;;1.40;1.20;;;;;;;;;;5034774;28;20907;-79
2022/07/17 13:28:49;;;;;;;2.30;1.27;;;;;;;;;;5035141;28;20390;-81
2022/07/17 13:31:16;;;;;;;1.42;1.33;;;;;;;;;;5034089;28;20819;-82
2022/07/17 13:33:42;;;;;;;2.15;1.30;;;;;;;;;;5034785;28;20941;-82
2022/07/17 13:36:08;;;;;;;1.43;1.20;;;;;;;;;;5034712;28;20410;-81
2022/07/17 13:38:34;;;;;;;1.70;1.30;;;;;;;;;;5034668;28;20533;-80
2022/07/17 13:41:01;;;;;;;2.20;1.13;;;;;;;;;;5034777;28;20401;-80
2022/07/17 13:43:27;;;;;;;2.20;1.50;;;;;;;;;;5034668;28;20387;-80
2022/07/17 13:45:53;;;;;;;2.40;1.90;;;;;;;;;;5034307;28;20387;-81
2022/07/17 13:48:19;;;;;;;2.13;1.20;;;;;;;;;;5034534;28;20390;-80
2022/07/17 13:50:45;;;;;;;2.55;1.27;;;;;;;;;;5034236;28;20387;-79
2022/07/17 13:53:11;;;;;;;1.27;1.17;;;;;;;;;;5033657;28;20794;-80
2022/07/17 13:55:38;;;;;;;1.00;1.00;;;;;;;;;;5032898;28;20379;-80
2022/07/17 13:58:04;;;;;;;1.95;1.15;;;;;;;;;;5033468;28;20402;-80
2022/07/17 14:00:30;;;;;;;1.63;1.38;;;;;;;;;;5032987;28;20548;-80
2022/07/17 14:02:56;;;;;;;1.40;1.30;;;;;;;;;;5033982;28;20425;-81
2022/07/17 14:05:22;;;;;;;2.10;1.35;;;;;;;;;;5034145;28;20391;-81
2022/07/17 14:07:48;;;;;;;1.27;1.10;;;;;;;;;;5030343;28;20417;-81
2022/07/17 14:10:14;;;;;;;1.30;1.08;;;;;;;;;;5033794;28;20383;-81
2022/07/17 14:12:40;;;;;;;3.05;2.85;;;;;;;;;;5034007;28;20383;-81
2022/07/17 14:15:10;;;;;;;3.38;3.08;;;;;;;;;;5033979;28;20887;-80
2022/07/17 14:17:36;;;;;;;1.85;1.13;;;;;;;;;;5033946;28;20477;-81
2022/07/17 14:20:03;;;;;;;1.60;1.50;;;;;;;;;;5033936;28;20385;-80
2022/07/17 14:22:29;;;;;;;1.80;1.38;;;;;;;;;;5033915;28;20382;-80
2022/07/17 14:24:55;;;;;;;1.80;1.70;;;;;;;;;;5034002;28;20383;-80
2022/07/17 14:27:21;;;;;;;1.17;1.08;;;;;;;;;;5033714;28;20421;-80
2022/07/17 14:29:48;;;;;;;1.20;1.10;;;;;;;;;;5033911;28;20476;-80
2022/07/17 14:32:14;;;;;;;1.10;1.00;;;;;;;;;;5033466;28;20791;-80
2022/07/17 14:34:40;;;;;;;1.20;1.10;;;;;;;;;;5033356;28;20733;-80
2022/07/17 14:37:07;;;;;;;1.23;1.13;;;;;;;;;;5033460;28;20383;-80
2022/07/17 14:39:34;;;;;;;1.80;1.10;;;;;;;;;;5015384;28;20402;-80
2022/07/17 14:42:00;;;;;;;1.20;1.02;;;;;;;;;;5030606;28;20391;-80
2022/07/17 14:44:27;;;;;;;1.50;1.00;;;;;;;;;;5034796;28;20383;-80
2022/07/17 14:46:53;;;;;;;1.00;0.90;;;;;;;;;;5033413;28;20413;-80